DLH3509 EDDF-EDDN
Flight info
| Callsign | DLH3509 |
|---|---|
| Flight time | 0h 32m |
| Altitude | 23000 |
| Route | CINDY8S/18 CINDY Z74 HAREM T104 ELMOX DCT LETKU LETKU1V |
| Aircraft | A320/M-SDE3FGHIRWY/LB1 |
Departure
| Time | 2026-05-04 10:02 |
|---|---|
| Airport | Frankfurt Main Airport (EDDF) |
Arrival
| Time | 2026-05-04 10:34 |
|---|---|
| Airport | Nuremberg Airport (EDDN) |
| Time | Latitude | Longitude | Altitude | Speed | Heading |
|---|---|---|---|---|---|
| 2026-05-04 09:34 | 50.04431 | 8.56331 | 363 ft | 0 kts | 170° |
| 2026-05-04 09:51 | 50.04442 | 8.56328 | 362 ft | 4 kts | 170° |
| 2026-05-04 09:51 | 50.04465 | 8.56321 | 362 ft | 2 kts | 170° |
| 2026-05-04 09:52 | 50.04488 | 8.56320 | 366 ft | 4 kts | 205° |
| 2026-05-04 09:52 | 50.04506 | 8.56346 | 364 ft | 4 kts | 248° |
| 2026-05-04 09:52 | 50.04514 | 8.56377 | 363 ft | 1 kts | 249° |
| 2026-05-04 09:52 | 50.04514 | 8.56378 | 363 ft | 0 kts | 249° |
| 2026-05-04 09:54 | 50.04498 | 8.56310 | 365 ft | 12 kts | 249° |
| 2026-05-04 09:55 | 50.04467 | 8.56183 | 366 ft | 13 kts | 250° |
| 2026-05-04 09:55 | 50.04426 | 8.56048 | 363 ft | 15 kts | 221° |
| 2026-05-04 09:55 | 50.04314 | 8.56071 | 362 ft | 18 kts | 171° |
| 2026-05-04 09:55 | 50.04238 | 8.55938 | 366 ft | 19 kts | 250° |
| 2026-05-04 09:56 | 50.04191 | 8.55743 | 367 ft | 19 kts | 249° |
| 2026-05-04 09:56 | 50.04141 | 8.55532 | 362 ft | 22 kts | 249° |
| 2026-05-04 09:56 | 50.04085 | 8.55299 | 363 ft | 24 kts | 250° |
| 2026-05-04 09:56 | 50.04023 | 8.55039 | 369 ft | 28 kts | 250° |
| 2026-05-04 09:57 | 50.03952 | 8.54743 | 365 ft | 30 kts | 249° |
| 2026-05-04 09:57 | 50.03881 | 8.54445 | 362 ft | 23 kts | 249° |
| 2026-05-04 09:57 | 50.03813 | 8.54265 | 362 ft | 20 kts | 240° |
| 2026-05-04 09:57 | 50.03759 | 8.54048 | 364 ft | 24 kts | 249° |
| 2026-05-04 09:58 | 50.03698 | 8.53791 | 363 ft | 27 kts | 250° |
| 2026-05-04 09:58 | 50.03628 | 8.53515 | 366 ft | 29 kts | 249° |
| 2026-05-04 09:58 | 50.03557 | 8.53220 | 365 ft | 29 kts | 249° |
| 2026-05-04 10:00 | 50.03313 | 8.52594 | 363 ft | 0 kts | 179° |
| 2026-05-04 10:02 | 49.98702 | 8.52652 | 1918 ft | 181 kts | 182° |
| 2026-05-04 10:04 | 49.93702 | 8.66922 | 5635 ft | 278 kts | 107° |
| 2026-05-04 10:04 | 49.92929 | 8.69659 | 6578 ft | 279 kts | 126° |
| 2026-05-04 10:04 | 49.91649 | 8.71857 | 7453 ft | 279 kts | 144° |
| 2026-05-04 10:04 | 49.90076 | 8.73614 | 8378 ft | 280 kts | 147° |
| 2026-05-04 10:05 | 49.88612 | 8.75580 | 9278 ft | 287 kts | 134° |
| 2026-05-04 10:05 | 49.87460 | 8.78153 | 10165 ft | 295 kts | 122° |
| 2026-05-04 10:05 | 49.86416 | 8.81036 | 10518 ft | 318 kts | 122° |
| 2026-05-04 10:05 | 49.85286 | 8.84150 | 10820 ft | 341 kts | 122° |
| 2026-05-04 10:06 | 49.84106 | 8.87412 | 11420 ft | 351 kts | 121° |
| 2026-05-04 10:06 | 49.82900 | 8.90747 | 12163 ft | 356 kts | 121° |
| 2026-05-04 10:06 | 49.81694 | 8.94088 | 12925 ft | 360 kts | 122° |
| 2026-05-04 10:08 | 49.75390 | 9.14183 | 16688 ft | 390 kts | 108° |
| 2026-05-04 10:08 | 49.74430 | 9.18108 | 17297 ft | 390 kts | 119° |
| 2026-05-04 10:08 | 49.73007 | 9.21670 | 17941 ft | 390 kts | 130° |
| 2026-05-04 10:08 | 49.71444 | 9.24490 | 18486 ft | 391 kts | 135° |
| 2026-05-04 10:09 | 49.69791 | 9.27362 | 18984 ft | 394 kts | 135° |
| 2026-05-04 10:09 | 49.67968 | 9.30565 | 19535 ft | 397 kts | 135° |
| 2026-05-04 10:09 | 49.66142 | 9.33799 | 20084 ft | 400 kts | 135° |
| 2026-05-04 10:09 | 49.64301 | 9.37057 | 20628 ft | 404 kts | 135° |
| 2026-05-04 10:10 | 49.62445 | 9.40332 | 21153 ft | 407 kts | 135° |
| 2026-05-04 10:10 | 49.60574 | 9.43636 | 21690 ft | 410 kts | 135° |
| 2026-05-04 10:10 | 49.58712 | 9.46916 | 22164 ft | 412 kts | 135° |
| 2026-05-04 10:10 | 49.56815 | 9.50258 | 22657 ft | 416 kts | 135° |
| 2026-05-04 10:11 | 49.54894 | 9.53636 | 22977 ft | 418 kts | 135° |
| 2026-05-04 10:11 | 49.52959 | 9.57031 | 23046 ft | 427 kts | 135° |
| 2026-05-04 10:11 | 49.50999 | 9.60451 | 23041 ft | 431 kts | 135° |
| 2026-05-04 10:11 | 49.49010 | 9.63920 | 23045 ft | 432 kts | 135° |
| 2026-05-04 10:12 | 49.47019 | 9.67393 | 23049 ft | 432 kts | 135° |
| 2026-05-04 10:12 | 49.45033 | 9.70858 | 22844 ft | 427 kts | 135° |
| 2026-05-04 10:12 | 49.43099 | 9.74233 | 22569 ft | 423 kts | 135° |
| 2026-05-04 10:12 | 49.41209 | 9.77705 | 22317 ft | 423 kts | 129° |
| 2026-05-04 10:13 | 49.39677 | 9.81557 | 21916 ft | 425 kts | 120° |
| 2026-05-04 10:13 | 49.38588 | 9.85788 | 21214 ft | 427 kts | 109° |
| 2026-05-04 10:13 | 49.38001 | 9.90260 | 20535 ft | 428 kts | 98° |
| 2026-05-04 10:13 | 49.37785 | 9.94811 | 19866 ft | 426 kts | 96° |
| 2026-05-04 10:14 | 49.37583 | 9.99342 | 19215 ft | 424 kts | 96° |
| 2026-05-04 10:14 | 49.37374 | 10.03782 | 18585 ft | 422 kts | 96° |
| 2026-05-04 10:16 | 49.35833 | 10.34606 | 13821 ft | 409 kts | 96° |
| 2026-05-04 10:16 | 49.35611 | 10.38977 | 13101 ft | 407 kts | 96° |
| 2026-05-04 10:16 | 49.35394 | 10.43243 | 12403 ft | 405 kts | 96° |
| 2026-05-04 10:16 | 49.35327 | 10.47559 | 11727 ft | 403 kts | 88° |
| 2026-05-04 10:17 | 49.35746 | 10.51788 | 11206 ft | 398 kts | 77° |
| 2026-05-04 10:17 | 49.36610 | 10.55738 | 11032 ft | 383 kts | 67° |
| 2026-05-04 10:19 | 49.42508 | 10.79753 | 9734 ft | 330 kts | 100° |
| 2026-05-04 10:19 | 49.42177 | 10.83180 | 9601 ft | 318 kts | 100° |
| 2026-05-04 10:19 | 49.41854 | 10.86490 | 9447 ft | 307 kts | 100° |
| 2026-05-04 10:19 | 49.41542 | 10.89649 | 9316 ft | 299 kts | 100° |
| 2026-05-04 10:20 | 49.41232 | 10.92791 | 9183 ft | 297 kts | 100° |
| 2026-05-04 10:20 | 49.40928 | 10.95925 | 9048 ft | 295 kts | 100° |
| 2026-05-04 10:20 | 49.40627 | 10.99049 | 8919 ft | 295 kts | 100° |
| 2026-05-04 10:20 | 49.40324 | 11.02161 | 8785 ft | 294 kts | 100° |
| 2026-05-04 10:21 | 49.40122 | 11.04217 | 8701 ft | 294 kts | 100° |
| 2026-05-04 10:21 | 49.39713 | 11.08345 | 8528 ft | 293 kts | 100° |
| 2026-05-04 10:21 | 49.39405 | 11.11438 | 8404 ft | 293 kts | 100° |
| 2026-05-04 10:21 | 49.39197 | 11.13525 | 8318 ft | 292 kts | 100° |
| 2026-05-04 10:22 | 49.38588 | 11.19666 | 8063 ft | 291 kts | 100° |
| 2026-05-04 10:22 | 49.38282 | 11.22742 | 7933 ft | 290 kts | 100° |
| 2026-05-04 10:22 | 49.37976 | 11.25804 | 7807 ft | 290 kts | 100° |
| 2026-05-04 10:23 | 49.37667 | 11.28864 | 7687 ft | 289 kts | 100° |
| 2026-05-04 10:23 | 49.37365 | 11.31875 | 7554 ft | 289 kts | 100° |
| 2026-05-04 10:25 | 49.35205 | 11.53082 | 6687 ft | 285 kts | 100° |
| 2026-05-04 10:25 | 49.35141 | 11.56073 | 6571 ft | 286 kts | 80° |
| 2026-05-04 10:25 | 49.35924 | 11.58893 | 6422 ft | 285 kts | 52° |
| 2026-05-04 10:25 | 49.37399 | 11.60834 | 6304 ft | 284 kts | 25° |
| 2026-05-04 10:26 | 49.39275 | 11.61662 | 6175 ft | 281 kts | 7° |
| 2026-05-04 10:26 | 49.41226 | 11.61951 | 6042 ft | 279 kts | 351° |
| 2026-05-04 10:26 | 49.43036 | 11.61057 | 5913 ft | 272 kts | 325° |
| 2026-05-04 10:26 | 49.44360 | 11.59068 | 5791 ft | 262 kts | 299° |
| 2026-05-04 10:27 | 49.44971 | 11.56536 | 5649 ft | 247 kts | 277° |
| 2026-05-04 10:27 | 49.45226 | 11.54007 | 5520 ft | 238 kts | 276° |
| 2026-05-04 10:27 | 49.45471 | 11.51543 | 5376 ft | 228 kts | 277° |
| 2026-05-04 10:27 | 49.45711 | 11.49165 | 5263 ft | 221 kts | 277° |
| 2026-05-04 10:28 | 49.45946 | 11.46867 | 5133 ft | 212 kts | 278° |
| 2026-05-04 10:28 | 49.46168 | 11.44696 | 5030 ft | 201 kts | 277° |
| 2026-05-04 10:28 | 49.46377 | 11.42645 | 4914 ft | 187 kts | 277° |
| 2026-05-04 10:28 | 49.46573 | 11.40717 | 4800 ft | 177 kts | 277° |
| 2026-05-04 10:29 | 49.46753 | 11.38939 | 4719 ft | 167 kts | 278° |
| 2026-05-04 10:29 | 49.46930 | 11.37201 | 4561 ft | 160 kts | 278° |
| 2026-05-04 10:29 | 49.47095 | 11.35572 | 4337 ft | 148 kts | 278° |
| 2026-05-04 10:29 | 49.47252 | 11.34023 | 4146 ft | 144 kts | 278° |
| 2026-05-04 10:30 | 49.47404 | 11.32512 | 3967 ft | 142 kts | 278° |
| 2026-05-04 10:30 | 49.47556 | 11.31010 | 3783 ft | 141 kts | 278° |
| 2026-05-04 10:30 | 49.47704 | 11.29533 | 3605 ft | 142 kts | 278° |
| 2026-05-04 10:30 | 49.47855 | 11.28037 | 3410 ft | 142 kts | 278° |
| 2026-05-04 10:31 | 49.48008 | 11.26514 | 3227 ft | 142 kts | 278° |
| 2026-05-04 10:31 | 49.48157 | 11.25025 | 3044 ft | 143 kts | 278° |
| 2026-05-04 10:32 | 49.49065 | 11.16028 | 1859 ft | 141 kts | 278° |
| 2026-05-04 10:33 | 49.49208 | 11.14532 | 1665 ft | 141 kts | 278° |
| 2026-05-04 10:33 | 49.49358 | 11.13045 | 1476 ft | 140 kts | 279° |
| 2026-05-04 10:33 | 49.49505 | 11.11557 | 1328 ft | 140 kts | 279° |
| 2026-05-04 10:33 | 49.49647 | 11.10073 | 1146 ft | 140 kts | 279° |
| 2026-05-04 10:34 | 49.49794 | 11.08640 | 1037 ft | 116 kts | 279° |
| 2026-05-04 10:34 | 49.49882 | 11.07754 | 1034 ft | 69 kts | 279° |
| 2026-05-04 10:34 | 49.49947 | 11.07099 | 1023 ft | 58 kts | 278° |
| 2026-05-04 10:34 | 49.49987 | 11.06624 | 1026 ft | 34 kts | 276° |
| 2026-05-04 10:35 | 49.49919 | 11.06484 | 1024 ft | 15 kts | 171° |
| 2026-05-04 10:35 | 49.49868 | 11.06507 | 1022 ft | 0 kts | 160° |
| 2026-05-04 10:35 | 49.49855 | 11.06514 | 1024 ft | 8 kts | 160° |
| 2026-05-04 10:35 | 49.49793 | 11.06642 | 1022 ft | 21 kts | 96° |
| 2026-05-04 10:36 | 49.49769 | 11.06862 | 1023 ft | 21 kts | 98° |
| 2026-05-04 10:36 | 49.49747 | 11.07092 | 1025 ft | 22 kts | 98° |
| 2026-05-04 10:36 | 49.49726 | 11.07329 | 1029 ft | 23 kts | 98° |
| 2026-05-04 10:36 | 49.49702 | 11.07570 | 1033 ft | 23 kts | 99° |
| 2026-05-04 10:37 | 49.49670 | 11.07756 | 1031 ft | 13 kts | 144° |
| 2026-05-04 10:37 | 49.49598 | 11.07729 | 1028 ft | 9 kts | 243° |
| 2026-05-04 10:37 | 49.49565 | 11.07670 | 1029 ft | 7 kts | 192° |
| 2026-05-04 10:37 | 49.49535 | 11.07662 | 1028 ft | 2 kts | 188° |
| 2026-05-04 10:39 | 49.49529 | 11.07660 | 1027 ft | 0 kts | 188° |